Time;durP1;ratioP1;P1;durP2;ratioP2;P2;SDS_P1;SDS_P2;PMS_P1;PMS_P2;Temp;Humidity;BMP_temperature;BMP_pressure;BME280_temperature;BME280_humidity;BME280_pressure;Samples;Min_cycle;Max_cycle;Signal;HPM_P1;HPM_P2
2023/01/24 00:02:02;;;;;;;18.95;9.80;;;;;;;-2.16;77.79;101552.97;7342444;19;20477;-74
2023/01/24 00:04:27;;;;;;;18.90;9.57;;;;;;;-2.14;77.64;101549.50;7341215;19;20002;-79
2023/01/24 00:06:52;;;;;;;16.25;8.68;;;;;;;-2.15;77.78;101542.53;7344819;19;20007;-71
2023/01/24 00:09:16;;;;;;;18.90;8.88;;;;;;;-2.20;78.00;101542.50;7341249;19;20006;-77
2023/01/24 00:11:41;;;;;;;16.45;8.32;;;;;;;-2.17;78.11;101553.84;7345063;19;20019;-81
2023/01/24 00:14:05;;;;;;;20.02;9.43;;;;;;;-2.20;78.14;101552.06;7347150;19;20006;-75
2023/01/24 00:16:30;;;;;;;19.95;9.15;;;;;;;-2.15;78.21;101558.22;7344667;19;20325;-77
2023/01/24 00:18:55;;;;;;;16.75;8.05;;;;;;;-2.18;78.22;101547.72;7341390;19;20013;-71
2023/01/24 00:21:22;;;;;;;19.38;8.50;;;;;;;-2.12;78.17;101546.91;7342873;19;20011;-73
2023/01/24 00:23:50;;;;;;;22.50;9.18;;;;;;;-2.13;78.07;101540.78;7344534;19;20397;-73
2023/01/24 00:26:15;;;;;;;22.85;9.48;;;;;;;-2.12;78.04;101546.91;7351937;19;19999;-78
2023/01/24 00:28:42;;;;;;;17.10;7.57;;;;;;;-2.14;78.07;101536.44;7351268;19;20027;-73
2023/01/24 00:31:07;;;;;;;18.73;8.68;;;;;;;-2.22;77.78;101538.09;7352768;19;20020;-76
2023/01/24 00:33:33;;;;;;;16.60;8.68;;;;;;;-2.21;77.94;101552.91;7349901;19;20014;-75
2023/01/24 00:35:58;;;;;;;13.77;7.75;;;;;;;-2.24;78.06;101537.19;7352769;19;20493;-78
2023/01/24 00:38:23;;;;;;;19.05;8.68;;;;;;;-2.23;78.17;101541.56;7350093;19;20504;-72
2023/01/24 00:40:48;;;;;;;16.48;7.72;;;;;;;-2.22;78.43;101538.97;7351624;19;20006;-76
2023/01/24 00:43:13;;;;;;;14.88;8.30;;;;;;;-2.24;78.30;101537.19;7351400;19;20095;-71
2023/01/24 00:45:38;;;;;;;17.80;9.05;;;;;;;-2.23;78.71;101541.56;7349640;19;20018;-74
2023/01/24 00:48:05;;;;;;;20.05;8.70;;;;;;;-2.22;78.51;101540.72;7350037;19;20674;-68
2023/01/24 00:50:29;;;;;;;14.23;8.32;;;;;;;-2.22;78.74;101520.69;7348890;19;20017;-69
2023/01/24 00:52:54;;;;;;;16.65;9.02;;;;;;;-2.18;78.61;101532.06;7352195;19;20022;-75
2023/01/24 00:55:19;;;;;;;14.90;8.80;;;;;;;-2.11;78.56;101533.84;7351190;19;20006;-78
2023/01/24 00:57:43;;;;;;;16.00;8.77;;;;;;;-2.11;78.28;101535.59;7352682;19;20014;-76
2023/01/24 01:00:08;;;;;;;19.17;8.65;;;;;;;-2.06;78.40;101536.53;7354697;19;20066;-76
2023/01/24 01:02:33;;;;;;;16.58;7.38;;;;;;;-2.03;78.33;101516.50;7349897;19;20078;-72
2023/01/24 01:04:58;;;;;;;22.20;8.85;;;;;;;-2.01;77.98;101522.63;7345655;19;20010;-72
2023/01/24 01:07:22;;;;;;;19.42;10.05;;;;;;;-1.97;78.07;101513.97;7350809;19;20015;-72
2023/01/24 01:09:47;;;;;;;24.85;9.75;;;;;;;-2.05;77.96;101512.16;7350807;19;20448;-80
2023/01/24 01:12:12;;;;;;;17.52;8.05;;;;;;;-2.10;77.99;101508.59;7352086;19;20754;-78
2023/01/24 01:14:37;;;;;;;17.38;8.48;;;;;;;-2.06;78.15;101516.50;7347992;19;20010;-76
2023/01/24 01:17:02;;;;;;;21.25;10.45;;;;;;;-2.04;77.96;101513.91;7348528;19;20029;-73
2023/01/24 01:19:27;;;;;;;15.82;8.32;;;;;;;-2.08;77.91;101513.00;7343441;19;20018;-72
2023/01/24 01:21:51;;;;;;;14.82;8.05;;;;;;;-2.07;78.10;101501.69;7350341;19;20444;-75
2023/01/24 01:24:16;;;;;;;18.20;8.93;;;;;;;-2.10;78.13;101498.16;7350310;19;20014;-74
2023/01/24 01:26:41;;;;;;;18.92;8.02;;;;;;;-2.06;78.13;101494.72;7349678;19;20086;-76
2023/01/24 01:29:05;;;;;;;13.55;8.38;;;;;;;-2.07;78.00;101503.41;7348905;19;20032;-72
2023/01/24 01:31:30;;;;;;;18.20;8.90;;;;;;;-2.11;77.82;101502.50;7347540;19;20101;-74
2023/01/24 01:33:55;;;;;;;16.80;8.20;;;;;;;-2.12;78.04;101492.03;7350832;19;20736;-76
2023/01/24 01:36:19;;;;;;;21.15;8.45;;;;;;;-2.09;78.16;101500.78;7349235;19;20010;-77
2023/01/24 01:38:44;;;;;;;18.45;9.77;;;;;;;-2.07;78.21;101498.19;7347862;19;20352;-71
2023/01/24 01:41:11;;;;;;;15.18;8.20;;;;;;;-2.12;78.03;101495.53;7346499;19;20013;-71
2023/01/24 01:44:37;;;;;;;18.63;8.82;;;;;;;-2.19;77.96;101493.72;7346525;19;20010;-75
2023/01/24 01:46:26;;;;;;;22.75;11.02;;;;;;;-2.16;78.13;101503.34;7347654;19;20003;-72
2023/01/24 01:48:58;;;;;;;16.65;7.80;;;;;;;-2.14;78.17;101501.63;7346889;19;20014;-73
2023/01/24 01:51:27;;;;;;;14.88;7.85;;;;;;;-2.09;78.34;101487.72;7349585;19;20007;-73
2023/01/24 01:54:04;;;;;;;22.85;9.68;;;;;;;-2.11;78.29;101486.81;7346193;19;20029;-71
2023/01/24 01:56:30;;;;;;;19.17;9.82;;;;;;;-2.07;78.20;101495.56;7350150;19;20003;-70
2023/01/24 01:58:58;;;;;;;22.35;9.00;;;;;;;-2.05;78.09;101493.88;7344939;19;20512;-69
2023/01/24 02:01:23;;;;;;;17.05;8.32;;;;;;;-2.05;77.95;101493.88;7346323;19;20524;-69
2023/01/24 02:03:57;;;;;;;13.30;7.97;;;;;;;-2.00;78.14;101490.41;7343043;19;20448;-68
2023/01/24 02:07:02;;;;;;;15.55;8.00;;;;;;;-1.99;77.97;101492.16;7346244;19;20010;-70
2023/01/24 02:09:33;;;;;;;15.40;7.25;;;;;;;-1.96;78.14;101497.44;7343875;19;20007;-70
2023/01/24 02:12:02;;;;;;;20.13;8.02;;;;;;;-1.98;78.13;101496.53;7347472;19;20010;-72
2023/01/24 02:17:12;;;;;;;17.92;8.60;;;;;;;-1.89;78.31;101486.16;7346459;19;20325;-71
2023/01/24 02:20:09;;;;;;;17.92;8.20;;;;;;;-1.83;78.09;101490.56;7344892;19;20010;-69
2023/01/24 02:22:45;;;;;;;14.43;7.07;;;;;;;-1.87;77.87;101497.50;7347036;19;20017;-70
2023/01/24 02:25:21;;;;;;;15.93;8.90;;;;;;;-1.91;78.12;101492.22;7343023;19;20015;-72
2023/01/24 02:27:46;;;;;;;16.05;7.68;;;;;;;-1.94;77.99;101498.31;7344907;19;20058;-71
2023/01/24 02:30:11;;;;;;;16.58;6.97;;;;;;;-1.92;77.97;101488.72;7345840;19;20019;-72
2023/01/24 02:32:35;;;;;;;16.17;7.68;;;;;;;-1.84;78.22;101491.44;7345332;19;20364;-72
2023/01/24 02:35:00;;;;;;;15.35;7.72;;;;;;;-1.80;77.84;101494.94;7345534;19;20325;-71
2023/01/24 02:37:27;;;;;;;13.50;6.65;;;;;;;-1.80;77.88;101494.94;7347157;19;20011;-68
2023/01/24 02:40:09;;;;;;;13.15;6.68;;;;;;;-1.75;77.47;101499.34;7346636;19;20022;-77
2023/01/24 02:42:36;;;;;;;15.38;7.63;;;;;;;-1.84;77.28;101501.91;7349375;19;20003;-79
2023/01/24 02:45:07;;;;;;;16.02;7.28;;;;;;;-1.75;77.57;101493.25;7344483;19;20011;-76
2023/01/24 02:47:40;;;;;;;16.00;7.28;;;;;;;-1.72;77.70;101480.19;7347740;19;20390;-78
2023/01/24 02:50:06;;;;;;;15.35;7.93;;;;;;;-1.76;77.56;101481.03;7348311;19;20070;-77
2023/01/24 02:55:14;;;;;;;16.50;7.53;;;;;;;-1.88;77.40;101480.06;7348244;19;20028;-77
2023/01/24 03:00:23;;;;;;;18.35;7.95;;;;;;;-1.83;77.50;101470.53;7346407;19;20025;-78
2023/01/24 03:02:48;;;;;;;16.00;8.10;;;;;;;-1.81;77.53;101465.31;7348216;19;20003;-81
2023/01/24 03:05:12;;;;;;;12.68;7.63;;;;;;;-1.81;77.50;101457.47;7349425;19;20456;-77
2023/01/24 03:07:44;;;;;;;15.88;8.63;;;;;;;-1.83;77.18;101465.31;7345153;19;20006;-76
2023/01/24 03:10:14;;;;;;;11.10;6.25;;;;;;;-1.75;77.58;101454.03;7348147;19;20006;-76
2023/01/24 03:34:32;;;;;;;15.02;7.78;;;;;;;-2.05;77.65;101442.47;7341260;19;20014;-70
2023/01/24 03:36:59;;;;;;;11.63;6.47;;;;;;;-2.11;77.86;101447.63;7343282;19;20041;-71
2023/01/24 03:42:07;;;;;;;15.57;7.97;;;;;;;-2.11;77.97;101425.84;7343272;19;20447;-74
2023/01/24 03:44:33;;;;;;;18.42;7.63;;;;;;;-2.05;78.04;101432.03;7340463;19;20026;-69
2023/01/24 03:46:59;;;;;;;14.50;7.47;;;;;;;-2.04;77.99;101439.00;7342682;19;20429;-68
2023/01/24 03:54:50;;;;;;;12.55;6.85;;;;;;;-1.95;77.78;101432.97;7340730;19;20330;-69
2023/01/24 03:57:14;;;;;;;18.63;8.77;;;;;;;-2.04;77.71;101427.69;7342018;19;20025;-69
2023/01/24 03:59:39;;;;;;;15.73;7.35;;;;;;;-2.03;77.70;101432.03;7342707;19;20467;-69
2023/01/24 04:02:03;;;;;;;13.32;6.53;;;;;;;-2.01;78.00;101431.16;7342897;19;20029;-68
2023/01/24 04:07:17;;;;;;;15.23;7.13;;;;;;;-2.17;78.29;101431.91;7342640;19;20036;-68
2023/01/24 04:09:41;;;;;;;13.52;6.65;;;;;;;-2.15;78.42;101443.25;7341648;19;20015;-70
2023/01/24 04:12:06;;;;;;;15.95;7.40;;;;;;;-2.20;78.19;101430.16;7342511;19;20342;-69
2023/01/24 04:14:31;;;;;;;12.27;6.00;;;;;;;-2.25;78.22;101430.94;7340613;19;20380;-69
2023/01/24 04:17:06;;;;;;;15.30;7.15;;;;;;;-2.36;78.71;101425.63;7344444;19;20078;-74
2023/01/24 04:19:48;;;;;;;16.50;8.13;;;;;;;-2.48;78.72;101425.50;7340407;19;20011;-71
2023/01/24 04:22:15;;;;;;;14.82;7.28;;;;;;;-2.56;79.01;101422.84;7342583;19;20031;-70
2023/01/24 04:24:40;;;;;;;13.90;6.53;;;;;;;-2.62;79.24;101430.63;7337931;19;20011;-71
2023/01/24 04:27:04;;;;;;;7.75;4.30;;;;;;;-2.57;79.20;101428.91;7341390;19;20027;-70
2023/01/24 04:29:43;;;;;;;18.92;8.85;;;;;;;-2.60;79.15;101433.25;7339155;19;20023;-70
2023/01/24 04:32:08;;;;;;;14.15;7.32;;;;;;;-2.71;79.46;101425.28;7339988;19;20009;-70
2023/01/24 04:34:38;;;;;;;13.13;6.57;;;;;;;-2.69;79.70;101426.16;7343802;19;20022;-71
2023/01/24 04:37:07;;;;;;;14.27;6.20;;;;;;;-2.75;79.88;101420.03;7339934;19;20006;-70
2023/01/24 04:39:33;;;;;;;13.43;7.10;;;;;;;-2.80;80.15;101424.31;7341934;19;20022;-70
2023/01/24 04:42:10;;;;;;;17.80;9.48;;;;;;;-2.77;80.09;101425.22;7341757;19;20345;-70
2023/01/24 04:44:36;;;;;;;16.02;7.80;;;;;;;-2.80;80.28;101425.19;7340196;19;20519;-69
2023/01/24 04:47:01;;;;;;;14.20;7.32;;;;;;;-2.87;80.37;101430.31;7340170;19;20580;-69
2023/01/24 04:49:25;;;;;;;14.30;7.03;;;;;;;-2.83;80.33;101424.28;7341017;19;20445;-70
2023/01/24 04:51:50;;;;;;;10.65;6.82;;;;;;;-2.87;80.60;101438.16;7339501;19;20465;-69
2023/01/24 04:54:28;;;;;;;12.60;7.25;;;;;;;-2.82;80.60;101426.03;7341634;19;20673;-70
2023/01/24 04:56:52;;;;;;;16.65;7.63;;;;;;;-2.71;80.70;101425.28;7338704;19;20322;-70
2023/01/24 04:59:17;;;;;;;15.25;7.03;;;;;;;-2.70;80.22;101416.59;7341080;19;20048;-69
2023/01/24 05:01:43;;;;;;;11.93;7.18;;;;;;;-2.73;80.36;101426.13;7342408;19;20046;-70
2023/01/24 05:04:20;;;;;;;11.57;5.95;;;;;;;-2.74;80.49;101420.03;7338919;19;20010;-68
2023/01/24 05:06:45;;;;;;;13.55;8.05;;;;;;;-2.82;80.41;101429.50;7340732;19;20007;-70
2023/01/24 05:09:11;;;;;;;14.32;7.28;;;;;;;-2.80;80.35;101419.97;7342077;19;20129;-69
2023/01/24 05:11:45;;;;;;;13.55;6.65;;;;;;;-2.78;80.50;101418.25;7345961;19;20098;-69
2023/01/24 05:14:11;;;;;;;16.98;7.93;;;;;;;-2.76;80.74;101415.66;7349389;19;20010;-70
2023/01/24 05:16:36;;;;;;;14.82;8.02;;;;;;;-2.81;80.71;101426.03;7347190;19;20317;-70
2023/01/24 05:19:02;;;;;;;14.82;7.38;;;;;;;-2.80;80.65;101419.97;7344246;19;20021;-70
2023/01/24 05:21:27;;;;;;;15.02;7.90;;;;;;;-2.76;80.41;101419.16;7346340;19;20070;-69
2023/01/24 05:23:52;;;;;;;12.32;7.00;;;;;;;-2.69;80.70;101413.13;7348221;19;20039;-69
2023/01/24 05:26:21;;;;;;;13.07;7.30;;;;;;;-2.77;80.49;101417.38;7347390;19;20048;-69
2023/01/24 05:28:46;;;;;;;16.08;7.47;;;;;;;-2.75;80.67;101407.84;7348176;19;20018;-69
2023/01/24 05:31:11;;;;;;;15.05;7.13;;;;;;;-2.75;80.66;101413.06;7348586;19;20006;-70
2023/01/24 05:33:37;;;;;;;14.40;7.47;;;;;;;-2.70;80.52;101400.91;7347080;19;20054;-70
2023/01/24 05:36:05;;;;;;;18.80;8.88;;;;;;;-2.72;80.55;101407.88;7347758;19;20452;-69
2023/01/24 05:38:33;;;;;;;18.98;7.70;;;;;;;-2.66;80.64;101402.72;7346387;19;20026;-70
2023/01/24 05:41:04;;;;;;;15.10;7.90;;;;;;;-2.65;80.59;101404.47;7347432;19;20018;-70
2023/01/24 05:43:31;;;;;;;15.05;8.13;;;;;;;-2.68;80.46;101407.03;7344546;19;20014;-68
2023/01/24 05:46:00;;;;;;;12.40;7.00;;;;;;;-2.61;80.48;101405.38;7347616;19;20033;-70
2023/01/24 05:48:27;;;;;;;19.42;7.82;;;;;;;-2.67;80.27;101400.09;7345554;19;20082;-68
2023/01/24 05:51:05;;;;;;;19.10;7.45;;;;;;;-2.54;80.47;101399.34;7346968;19;20025;-69
2023/01/24 05:53:32;;;;;;;16.63;7.32;;;;;;;-2.51;80.21;101394.16;7345199;19;20464;-70
2023/01/24 05:55:58;;;;;;;15.93;8.00;;;;;;;-2.51;80.17;101393.28;7346603;19;20010;-69
2023/01/24 05:58:25;;;;;;;22.50;9.07;;;;;;;-2.62;80.06;101388.84;7347346;19;20018;-69
2023/01/24 06:01:09;;;;;;;16.08;8.95;;;;;;;-2.49;80.11;101384.63;7346603;19;20010;-69
2023/01/24 06:03:41;;;;;;;16.95;9.13;;;;;;;-2.64;79.92;101382.72;7344036;19;20022;-71
2023/01/24 06:06:07;;;;;;;12.15;6.57;;;;;;;-2.64;80.05;101384.47;7344972;19;20469;-68
2023/01/24 06:08:34;;;;;;;18.15;8.02;;;;;;;-2.59;80.20;101381.03;7346324;19;20014;-69
2023/01/24 06:11:27;;;;;;;14.23;7.10;;;;;;;-2.38;80.14;101379.50;7344138;19;20114;-68
2023/01/24 06:13:57;;;;;;;13.95;7.70;;;;;;;-2.27;79.82;101381.34;7346216;19;20006;-69
2023/01/24 06:16:26;;;;;;;13.13;7.95;;;;;;;-2.18;79.39;101383.13;7344738;19;20073;-69
2023/01/24 06:18:52;;;;;;;15.18;6.85;;;;;;;-2.17;79.21;101387.50;7342094;19;20010;-68
2023/01/24 06:21:46;;;;;;;12.13;7.40;;;;;;;-2.24;79.01;101391.78;7344068;19;20010;-69
2023/01/24 06:24:18;;;;;;;13.73;6.05;;;;;;;-2.29;78.69;101390.88;7345692;19;20016;-68
2023/01/24 06:26:53;;;;;;;17.40;7.50;;;;;;;-2.44;78.83;101389.88;7345096;19;20018;-70
2023/01/24 06:29:20;;;;;;;15.00;7.65;;;;;;;-2.52;79.05;101392.41;7347552;19;20709;-69
2023/01/24 06:32:00;;;;;;;13.98;8.10;;;;;;;-2.63;79.34;101386.22;7346382;19;20078;-68
2023/01/24 06:34:37;;;;;;;14.48;7.65;;;;;;;-2.60;79.61;101379.31;7347766;19;20033;-68
2023/01/24 06:37:26;;;;;;;18.13;8.57;;;;;;;-2.60;79.54;101376.69;7345403;19;20010;-68
2023/01/24 06:39:52;;;;;;;12.65;7.13;;;;;;;-2.67;79.61;101382.69;7345484;19;20045;-67
2023/01/24 06:42:22;;;;;;;15.93;7.18;;;;;;;-2.67;79.78;101368.75;7347146;19;20469;-67
2023/01/24 06:44:47;;;;;;;14.45;8.45;;;;;;;-2.85;80.07;101374.69;7346025;19;20022;-67
2023/01/24 06:47:12;;;;;;;16.00;9.05;;;;;;;-2.77;80.18;101372.16;7346460;19;20395;-67
2023/01/24 06:49:38;;;;;;;14.60;7.18;;;;;;;-2.65;80.21;101373.16;7348346;19;20026;-67
2023/01/24 06:52:03;;;;;;;32.63;9.85;;;;;;;-2.68;80.01;101375.72;7346246;19;20010;-69
2023/01/24 06:54:27;;;;;;;17.92;9.57;;;;;;;-2.64;80.00;101369.69;7345403;19;20036;-69
2023/01/24 06:56:52;;;;;;;11.05;6.40;;;;;;;-2.54;79.90;101375.84;7345743;19;20023;-70
2023/01/24 06:59:16;;;;;;;13.82;8.10;;;;;;;-2.55;79.82;101358.44;7345090;19;20027;-68
2023/01/24 07:01:41;;;;;;;20.13;7.25;;;;;;;-2.41;79.89;101366.41;7345563;19;20098;-69
2023/01/24 07:04:06;;;;;;;17.48;8.52;;;;;;;-2.32;79.65;101363.84;7343547;19;20022;-69
2023/01/24 07:06:30;;;;;;;15.75;7.65;;;;;;;-2.16;79.09;101378.81;7346547;19;20190;-70
2023/01/24 07:08:55;;;;;;;11.52;6.47;;;;;;;-1.91;78.96;101388.56;7345673;19;20007;-69
2023/01/24 07:11:22;;;;;;;13.27;6.97;;;;;;;-1.77;78.52;101375.59;7344213;19;20014;-70
2023/01/24 07:13:47;;;;;;;15.52;8.52;;;;;;;-1.75;77.69;101380.81;7345730;19;20340;-70
2023/01/24 07:16:11;;;;;;;17.17;8.13;;;;;;;-1.82;77.00;101379.94;7345618;19;20059;-70
2023/01/24 07:18:36;;;;;;;14.65;7.50;;;;;;;-1.72;77.17;101383.47;7343671;19;20014;-72
2023/01/24 07:21:05;;;;;;;15.05;7.78;;;;;;;-1.58;77.23;101385.28;7348857;19;20020;-69
2023/01/24 07:23:32;;;;;;;15.30;7.28;;;;;;;-1.59;76.92;101382.69;7345945;19;20043;-69
2023/01/24 07:25:57;;;;;;;18.80;7.00;;;;;;;-1.55;76.88;101380.06;7348215;19;20755;-70
2023/01/24 07:28:21;;;;;;;12.77;6.57;;;;;;;-1.47;76.50;101388.81;7344369;19;20021;-70
2023/01/24 07:30:48;;;;;;;12.70;6.50;;;;;;;-1.51;76.23;101386.19;7346940;19;20028;-72
2023/01/24 07:33:13;;;;;;;11.68;6.68;;;;;;;-1.56;76.16;101385.28;7343900;19;20018;-68
2023/01/24 07:35:39;;;;;;;17.08;7.00;;;;;;;-1.55;76.45;101384.44;7347771;19;20006;-70
2023/01/24 07:38:03;;;;;;;11.77;6.53;;;;;;;-1.51;76.71;101380.97;7349595;19;20050;-70
2023/01/24 07:40:28;;;;;;;13.00;7.05;;;;;;;-1.48;76.49;101386.22;7346051;19;20039;-69
2023/01/24 07:42:53;;;;;;;14.20;7.38;;;;;;;-1.63;76.36;101387.00;7347441;19;20024;-69
2023/01/24 07:45:17;;;;;;;14.05;7.88;;;;;;;-1.73;76.44;101384.34;7342385;19;20125;-70
2023/01/24 07:47:42;;;;;;;15.52;8.10;;;;;;;-1.70;76.45;101392.19;7343939;19;20031;-69
2023/01/24 07:50:07;;;;;;;17.17;7.10;;;;;;;-1.67;76.93;101380.00;7341368;19;20015;-68
2023/01/24 07:52:32;;;;;;;13.48;6.75;;;;;;;-1.65;76.78;101383.50;7342541;19;20472;-68
2023/01/24 07:54:56;;;;;;;13.23;6.80;;;;;;;-1.59;76.83;101395.75;7343990;19;20538;-68
2023/01/24 07:57:21;;;;;;;17.55;9.10;;;;;;;-1.71;76.80;101386.09;7341880;19;20426;-68
2023/01/24 07:59:46;;;;;;;11.50;6.35;;;;;;;-1.65;76.82;101388.72;7343502;19;20425;-68
2023/01/24 08:02:11;;;;;;;14.05;6.78;;;;;;;-1.63;76.72;101389.63;7341261;19;20038;-69
2023/01/24 08:04:36;;;;;;;14.10;6.78;;;;;;;-1.58;76.84;101390.50;7342427;19;20010;-69
2023/01/24 08:07:19;;;;;;;17.38;7.38;;;;;;;-1.54;76.80;101391.41;7343025;19;20018;-66
2023/01/24 08:09:46;;;;;;;13.90;7.28;;;;;;;-1.48;76.60;101391.47;7343374;19;20010;-68
2023/01/24 08:12:11;;;;;;;17.30;9.57;;;;;;;-1.50;76.58;101380.97;7344537;19;20023;-67
2023/01/24 08:14:35;;;;;;;17.80;8.60;;;;;;;-1.37;76.46;101376.69;7342234;19;20852;-68
2023/01/24 08:17:00;;;;;;;11.07;5.85;;;;;;;-1.25;76.37;101384.59;7342136;19;20390;-69
2023/01/24 08:19:24;;;;;;;15.98;6.57;;;;;;;-1.12;76.03;101375.91;7339186;19;20060;-69
2023/01/24 08:21:50;;;;;;;14.35;6.57;;;;;;;-1.05;75.68;101384.66;7342991;19;20002;-69
2023/01/24 08:24:14;;;;;;;18.33;8.48;;;;;;;-1.06;75.21;101367.22;7342070;19;20041;-70
2023/01/24 08:26:39;;;;;;;14.77;6.82;;;;;;;-0.99;75.06;101370.72;7341274;19;20011;-70
2023/01/24 08:29:04;;;;;;;14.95;7.55;;;;;;;-0.95;75.15;101368.13;7342802;19;20373;-69
2023/01/24 08:31:28;;;;;;;16.58;8.25;;;;;;;-1.00;74.75;101366.34;7340742;19;20019;-70
2023/01/24 08:33:53;;;;;;;13.02;6.97;;;;;;;-0.92;75.13;101372.50;7346091;19;20011;-70
2023/01/24 08:36:23;;;;;;;16.85;7.55;;;;;;;-0.99;75.14;101365.47;7349517;19;20003;-69
2023/01/24 08:38:48;;;;;;;13.50;6.28;;;;;;;-0.97;74.91;101364.63;7349797;19;20019;-72
2023/01/24 08:41:12;;;;;;;15.75;6.75;;;;;;;-0.92;75.05;101367.25;7350170;19;20080;-69
2023/01/24 08:43:37;;;;;;;15.00;6.75;;;;;;;-0.93;75.36;101357.66;7344019;19;20023;-69
2023/01/24 08:46:02;;;;;;;13.88;7.18;;;;;;;-0.88;75.42;101359.41;7346360;19;20013;-71
2023/01/24 08:48:28;;;;;;;16.73;8.18;;;;;;;-0.89;74.98;101346.31;7349597;19;20402;-70
2023/01/24 08:50:53;;;;;;;14.57;7.30;;;;;;;-0.91;75.00;101345.44;7349269;19;20037;-70
2023/01/24 08:53:17;;;;;;;16.90;8.52;;;;;;;-1.04;74.76;101341.94;7349264;19;20014;-70
2023/01/24 08:55:42;;;;;;;15.27;7.72;;;;;;;-0.98;75.05;101341.06;7349612;19;20009;-70
2023/01/24 08:58:06;;;;;;;12.68;6.97;;;;;;;-0.86;75.07;101347.19;7349504;19;20030;-70
2023/01/24 09:00:32;;;;;;;19.17;8.35;;;;;;;-0.86;74.51;101341.97;7347430;19;20419;-70
2023/01/24 09:03:00;;;;;;;14.00;7.30;;;;;;;-0.80;74.39;101335.88;7348132;19;20018;-71
2023/01/24 09:05:25;;;;;;;12.98;7.43;;;;;;;-0.77;74.32;101328.00;7348860;19;20096;-69
2023/01/24 09:07:49;;;;;;;15.90;8.25;;;;;;;-0.76;74.12;101316.66;7346521;19;20014;-70
2023/01/24 09:10:14;;;;;;;14.73;7.63;;;;;;;-0.83;74.20;101313.16;7349562;19;20461;-69
2023/01/24 09:12:38;;;;;;;15.65;9.02;;;;;;;-0.68;74.50;101314.94;7347566;19;20452;-70
2023/01/24 09:15:04;;;;;;;14.30;9.25;;;;;;;-0.67;74.17;101321.03;7348808;19;20029;-69
2023/01/24 09:17:29;;;;;;;18.08;9.20;;;;;;;-0.89;74.10;101313.16;7347921;19;20011;-70
2023/01/24 09:19:54;;;;;;;19.75;9.68;;;;;;;-0.84;73.95;101318.41;7346622;19;20078;-70
2023/01/24 09:22:18;;;;;;;13.50;7.45;;;;;;;-0.78;74.14;101316.66;7349456;19;20002;-69
2023/01/24 09:24:43;;;;;;;15.77;8.38;;;;;;;-0.67;74.23;101311.44;7345626;19;20010;-70
2023/01/24 09:27:10;;;;;;;13.18;7.68;;;;;;;-0.57;74.16;101307.97;7347788;19;20342;-70
2023/01/24 09:29:35;;;;;;;15.57;8.48;;;;;;;-0.65;73.67;101309.69;7349010;19;20018;-69
2023/01/24 09:31:59;;;;;;;12.57;7.13;;;;;;;-0.67;73.54;101308.81;7346928;19;20024;-69
2023/01/24 09:34:24;;;;;;;14.90;7.88;;;;;;;-0.67;73.44;101300.94;7347816;19;20431;-69
2023/01/24 09:36:49;;;;;;;15.70;7.35;;;;;;;-0.64;73.75;101311.44;7346076;19;20010;-69
2023/01/24 09:39:14;;;;;;;16.45;8.18;;;;;;;-0.58;73.70;101303.59;7347942;19;20025;-68
2023/01/24 09:41:47;;;;;;;15.77;7.43;;;;;;;-0.49;73.56;101316.69;7345580;19;20012;-69
2023/01/24 09:44:20;;;;;;;16.20;8.00;;;;;;;-0.44;73.60;101312.31;7345827;19;20014;-69
2023/01/24 09:46:52;;;;;;;14.52;8.07;;;;;;;-0.50;73.30;101309.69;7347068;19;20049;-69
2023/01/24 09:49:39;;;;;;;17.35;7.97;;;;;;;-0.62;73.47;101309.69;7347156;19;20330;-69
2023/01/24 09:52:06;;;;;;;15.10;7.82;;;;;;;-0.72;73.91;101307.94;7345959;19;20014;-70
2023/01/24 09:54:46;;;;;;;15.60;7.80;;;;;;;-0.68;74.10;101316.69;7351479;19;20017;-72
2023/01/24 09:57:19;;;;;;;14.70;9.23;;;;;;;-0.72;74.10;101305.31;7351790;19;20007;-71
2023/01/24 09:59:50;;;;;;;17.88;7.55;;;;;;;-0.68;74.18;101299.22;7354970;19;20030;-70
2023/01/24 10:02:17;;;;;;;18.02;8.85;;;;;;;-0.76;74.03;101298.34;7350676;19;20010;-71
2023/01/24 10:04:44;;;;;;;13.38;6.95;;;;;;;-0.60;74.16;101297.47;7346227;19;20015;-71
2023/01/24 10:07:26;;;;;;;11.85;7.15;;;;;;;-0.56;73.89;101288.72;7347048;19;20006;-70
2023/01/24 10:10:22;;;;;;;13.60;7.20;;;;;;;-0.41;73.89;101283.50;7345933;19;20473;-71
2023/01/24 10:13:08;;;;;;;13.35;7.32;;;;;;;-0.31;73.67;101278.25;7346723;19;20023;-70
2023/01/24 10:15:53;;;;;;;11.05;6.85;;;;;;;-0.31;73.04;101278.25;7346741;19;20473;-71
2023/01/24 10:18:25;;;;;;;16.15;7.28;;;;;;;-0.28;73.21;101280.88;7339923;19;20055;-71
2023/01/24 10:21:11;;;;;;;13.43;6.18;;;;;;;-0.26;73.17;101276.50;7344875;19;20005;-71
2023/01/24 10:23:40;;;;;;;12.30;6.03;;;;;;;-0.30;73.21;101278.25;7342567;19;20081;-71
2023/01/24 10:26:21;;;;;;;15.55;7.10;;;;;;;-0.27;73.09;101269.50;7344638;19;20015;-69
2023/01/24 10:28:52;;;;;;;13.68;6.57;;;;;;;-0.31;73.17;101262.53;7343277;19;20037;-69
2023/01/24 10:31:34;;;;;;;13.98;7.15;;;;;;;-0.26;73.07;101260.78;7344920;19;20014;-69
2023/01/24 10:34:10;;;;;;;12.23;7.22;;;;;;;-0.18;73.00;101254.63;7343912;19;20034;-69
2023/01/24 10:36:57;;;;;;;12.25;6.55;;;;;;;-0.12;73.45;101248.53;7342417;19;20066;-69
2023/01/24 10:39:22;;;;;;;12.75;6.53;;;;;;;-0.22;73.19;101246.78;7344051;19;20500;-70
2023/01/24 10:41:46;;;;;;;15.45;7.10;;;;;;;-0.24;72.77;101243.31;7342800;19;20329;-69
2023/01/24 10:44:16;;;;;;;16.15;7.35;;;;;;;-0.30;72.82;101244.19;7341937;19;20032;-70
2023/01/24 10:46:57;;;;;;;14.13;7.78;;;;;;;-0.20;73.20;101250.28;7341187;19;20006;-70
2023/01/24 10:49:30;;;;;;;11.43;7.22;;;;;;;-0.35;72.73;101230.22;7343199;19;20881;-68
2023/01/24 10:52:17;;;;;;;12.77;6.70;;;;;;;-0.41;72.63;101228.47;7341593;19;20131;-68
2023/01/24 10:54:42;;;;;;;14.10;9.10;;;;;;;-0.50;72.71;101228.50;7343894;19;20029;-68
2023/01/24 10:57:29;;;;;;;12.63;6.72;;;;;;;-0.52;73.25;101221.50;7342900;19;20006;-68
2023/01/24 10:59:54;;;;;;;13.43;7.75;;;;;;;-0.58;73.22;101226.75;7345381;19;20037;-68
2023/01/24 11:02:24;;;;;;;12.70;6.32;;;;;;;-0.48;73.40;101218.03;7345023;19;20003;-69
2023/01/24 11:04:59;;;;;;;13.80;7.20;;;;;;;-0.42;73.48;101223.22;7344712;19;20368;-70
2023/01/24 11:07:38;;;;;;;;;;;;;;;-0.22;73.44;101215.31;7345857;19;20150;-68
2023/01/24 11:10:17;;;;;;;11.15;6.60;;;;;;;-0.32;72.95;101201.38;7344206;19;19923;-70
2023/01/24 11:12:59;;;;;;;13.55;7.78;;;;;;;-0.15;73.37;101206.59;7342043;19;20037;-71
2023/01/24 11:15:29;;;;;;;11.27;7.72;;;;;;;-0.24;72.96;101197.00;7343561;19;20022;-69
2023/01/24 11:18:13;;;;;;;11.00;6.72;;;;;;;-0.14;72.69;101185.63;7340389;19;20006;-69
2023/01/24 11:20:37;;;;;;;16.90;9.02;;;;;;;-0.17;72.46;101188.25;7345469;19;20022;-68
2023/01/24 11:23:11;;;;;;;12.05;6.25;;;;;;;0.01;72.76;101187.28;7341499;19;20002;-69
2023/01/24 11:25:36;;;;;;;11.88;6.35;;;;;;;-0.01;72.24;101189.06;7345677;19;20022;-71
2023/01/24 11:28:00;;;;;;;12.80;6.43;;;;;;;-0.09;72.12;101177.72;7343229;19;20002;-69
2023/01/24 11:30:25;;;;;;;15.30;7.05;;;;;;;-0.01;72.38;101176.84;7343214;19;20039;-69
2023/01/24 11:33:17;;;;;;;12.32;6.72;;;;;;;0.03;72.42;101171.56;7344735;19;20337;-74
2023/01/24 11:35:54;;;;;;;11.88;6.60;;;;;;;-0.15;71.99;101162.91;7345410;19;20365;-69
2023/01/24 11:38:25;;;;;;;12.88;6.72;;;;;;;-0.04;72.17;101176.84;7343701;19;20033;-70
2023/01/24 11:41:21;;;;;;;10.43;6.63;;;;;;;0.08;72.41;101172.44;7343394;19;20019;-70
2023/01/24 11:43:52;;;;;;;11.68;6.57;;;;;;;0.09;72.43;101172.44;7343932;19;20014;-69
2023/01/24 11:46:44;;;;;;;11.85;6.70;;;;;;;0.10;72.06;101161.06;7344409;19;20011;-70
2023/01/24 11:49:20;;;;;;;11.27;5.68;;;;;;;0.13;72.12;101160.16;7343241;19;20014;-69
2023/01/24 11:52:00;;;;;;;13.00;5.82;;;;;;;0.18;72.26;101155.78;7342595;19;20015;-70
2023/01/24 11:55:03;;;;;;;12.95;6.05;;;;;;;0.08;71.92;101165.44;7344204;19;20010;-68
2023/01/24 11:57:42;;;;;;;9.82;5.47;;;;;;;0.14;71.82;101152.28;7339792;19;20115;-69
2023/01/24 12:00:38;;;;;;;10.93;7.00;;;;;;;0.12;71.62;101158.41;7341865;19;20026;-69
2023/01/24 12:03:15;;;;;;;9.82;5.90;;;;;;;0.17;71.97;101147.03;7340840;19;20016;-69
2023/01/24 12:05:39;;;;;;;8.82;5.38;;;;;;;0.15;71.83;101140.03;7341940;19;20078;-69
2023/01/24 12:08:16;;;;;;;8.95;5.30;;;;;;;0.22;71.84;101134.78;7339718;19;20082;-70